Time;durP1;ratioP1;P1;durP2;ratioP2;P2;SDS_P1;SDS_P2;PMS_P1;PMS_P2;Temp;Humidity;BMP_temperature;BMP_pressure;BME280_temperature;BME280_humidity;BME280_pressure;Samples;Min_cycle;Max_cycle;Signal;HPM_P1;HPM_P2
2023/03/28 00:00:55;;;;;;;4.77;1.70;;;4.50;99.90;;;;;;5041007;28;20431;-76
2023/03/28 00:03:21;;;;;;;6.97;1.67;;;4.40;99.90;;;;;;5039891;28;20616;-76
2023/03/28 00:05:48;;;;;;;6.07;2.03;;;4.50;99.90;;;;;;5042074;28;20782;-76
2023/03/28 00:08:15;;;;;;;4.40;1.80;;;4.50;99.90;;;;;;5043177;28;20206;-76
2023/03/28 00:10:41;;;;;;;8.00;2.40;;;4.60;99.90;;;;;;5040159;28;20421;-76
2023/03/28 00:13:07;;;;;;;6.30;2.17;;;4.50;99.90;;;;;;5046435;28;20440;-76
2023/03/28 00:15:36;;;;;;;11.33;2.17;;;4.40;99.90;;;;;;5048259;28;20474;-76
2023/03/28 00:18:04;;;;;;;8.33;3.10;;;4.30;99.90;;;;;;5040775;28;20424;-76
2023/03/28 00:20:30;;;;;;;7.33;2.33;;;4.40;99.90;;;;;;5039645;28;20432;-76
2023/03/28 00:22:57;;;;;;;3.57;2.13;;;4.50;99.90;;;;;;5037444;28;20417;-76
2023/03/28 00:25:23;;;;;;;4.90;2.30;;;4.30;99.90;;;;;;5043951;28;20468;-76
2023/03/28 00:27:49;;;;;;;6.37;2.70;;;4.30;99.90;;;;;;5046776;28;20424;-75
2023/03/28 00:30:15;;;;;;;5.90;2.50;;;4.50;99.90;;;;;;5048112;28;20912;-76
2023/03/28 00:32:41;;;;;;;4.23;2.70;;;4.30;99.90;;;;;;5048231;28;20430;-76
2023/03/28 00:35:08;;;;;;;5.40;2.47;;;4.30;99.90;;;;;;5030069;28;20267;-76
2023/03/28 00:37:34;;;;;;;4.47;2.30;;;4.30;99.90;;;;;;5046788;28;20182;-76
2023/03/28 00:40:00;;;;;;;6.07;3.03;;;4.20;99.90;;;;;;5047792;28;20408;-76
2023/03/28 00:42:26;;;;;;;7.03;2.80;;;4.10;99.90;;;;;;5047967;28;20170;-76
2023/03/28 00:44:56;;;;;;;12.13;2.93;;;4.30;99.90;;;;;;5051569;28;20858;-75
2023/03/28 00:47:29;;;;;;;5.87;3.10;;;4.40;99.90;;;;;;5051483;28;20228;-76
2023/03/28 00:50:13;;;;;;;8.33;2.90;;;4.30;99.90;;;;;;5066689;28;20463;-76
2023/03/28 00:52:53;;;;;;;7.50;3.03;;;4.30;99.90;;;;;;5052188;28;20915;-76
2023/03/28 00:55:30;;;;;;;7.03;3.30;;;4.30;99.90;;;;;;5050550;28;20857;-76
2023/03/28 00:57:58;;;;;;;4.03;2.80;;;4.40;99.90;;;;;;5050282;28;20940;-76
2023/03/28 01:00:24;;;;;;;9.17;3.10;;;4.20;99.90;;;;;;5050177;28;20470;-76
2023/03/28 01:02:53;;;;;;;5.60;3.27;;;4.30;99.90;;;;;;5050279;28;20420;-76
2023/03/28 01:05:27;;;;;;;6.03;2.87;;;4.20;99.90;;;;;;5051118;28;20440;-76
2023/03/28 01:08:00;;;;;;;8.63;3.23;;;4.30;99.90;;;;;;5050991;28;20460;-76
2023/03/28 01:10:27;;;;;;;6.13;3.03;;;4.20;99.90;;;;;;5049606;28;20410;-76
2023/03/28 01:12:55;;;;;;;7.17;3.33;;;4.00;99.90;;;;;;5049469;28;20475;-76
2023/03/28 01:15:20;;;;;;;7.60;3.00;;;4.10;99.90;;;;;;5050950;28;20447;-76
2023/03/28 01:17:47;;;;;;;8.53;3.17;;;3.90;99.90;;;;;;5050934;28;20413;-75
2023/03/28 01:20:25;;;;;;;7.60;3.30;;;4.20;99.90;;;;;;5049571;28;20458;-76
2023/03/28 01:23:16;;;;;;;7.77;3.37;;;4.00;99.90;;;;;;5050970;28;20772;-75
2023/03/28 01:26:00;;;;;;;8.07;3.03;;;4.00;99.90;;;;;;5049808;28;20454;-76
2023/03/28 01:28:45;;;;;;;5.00;2.80;;;3.90;99.90;;;;;;5050684;28;20460;-76
2023/03/28 01:31:30;;;;;;;12.37;4.00;;;3.80;99.90;;;;;;5050814;28;21004;-75
2023/03/28 01:34:10;;;;;;;5.47;3.23;;;3.90;99.90;;;;;;5049240;28;20452;-76
2023/03/28 01:37:08;;;;;;;4.77;3.10;;;3.70;99.90;;;;;;5051161;28;20431;-76
2023/03/28 01:39:58;;;;;;;7.90;3.17;;;3.70;99.90;;;;;;5047147;28;20420;-75
2023/03/28 01:42:37;;;;;;;6.50;2.80;;;3.70;99.90;;;;;;5050656;28;20412;-76
2023/03/28 01:45:16;;;;;;;15.40;4.27;;;3.70;99.90;;;;;;5050275;28;20945;-76
2023/03/28 01:48:13;;;;;;;10.77;4.47;;;3.70;99.90;;;;;;5050352;28;20429;-76
2023/03/28 01:50:50;;;;;;;6.60;3.33;;;3.70;99.90;;;;;;5048689;28;20511;-76
2023/03/28 01:53:42;;;;;;;8.50;3.57;;;3.70;99.90;;;;;;5050014;28;20412;-76
2023/03/28 01:56:25;;;;;;;11.20;5.17;;;3.60;99.90;;;;;;5047924;28;20412;-76
2023/03/28 01:59:16;;;;;;;10.03;4.70;;;3.80;99.90;;;;;;5050002;28;20455;-76
2023/03/28 02:01:50;;;;;;;9.97;3.80;;;3.80;99.90;;;;;;5050106;28;20440;-76
2023/03/28 02:04:19;;;;;;;14.53;4.30;;;3.70;99.90;;;;;;5049665;28;20856;-75
2023/03/28 02:06:48;;;;;;;5.20;3.80;;;3.60;99.90;;;;;;5048941;28;20463;-76
2023/03/28 02:09:15;;;;;;;6.93;4.00;;;3.50;99.90;;;;;;5050388;28;20464;-76
2023/03/28 02:11:42;;;;;;;6.20;4.10;;;3.60;99.90;;;;;;5050477;28;20774;-76
2023/03/28 02:14:13;;;;;;;10.80;4.03;;;3.50;99.90;;;;;;5050272;28;20432;-76
2023/03/28 02:16:40;;;;;;;8.00;3.83;;;3.50;99.90;;;;;;5049268;28;20412;-76
2023/03/28 02:19:07;;;;;;;7.53;3.63;;;3.50;99.90;;;;;;5049128;28;20421;-76
2023/03/28 02:21:50;;;;;;;5.60;3.90;;;3.60;99.90;;;;;;5048976;28;20419;-75
2023/03/28 02:24:16;;;;;;;7.57;4.10;;;3.30;99.90;;;;;;5050161;28;20436;-76
2023/03/28 02:26:42;;;;;;;7.40;4.27;;;3.50;99.90;;;;;;5050445;28;20423;-76
2023/03/28 02:29:09;;;;;;;14.90;3.20;;;3.20;99.90;;;;;;5050146;28;20213;-76
2023/03/28 02:31:35;;;;;;;10.30;4.17;;;3.40;99.90;;;;;;5049466;28;20971;-76
2023/03/28 02:34:02;;;;;;;6.67;4.07;;;3.10;99.90;;;;;;5049646;28;20503;-75
2023/03/28 02:36:34;;;;;;;5.83;3.20;;;3.30;99.90;;;;;;5048804;28;20420;-75
2023/03/28 02:39:21;;;;;;;10.10;4.07;;;3.40;99.90;;;;;;5049936;28;20452;-76
2023/03/28 02:42:23;;;;;;;7.20;3.70;;;3.20;99.90;;;;;;5050231;28;20913;-76
2023/03/28 02:45:17;;;;;;;8.23;3.60;;;3.40;99.90;;;;;;5048825;28;20435;-76
2023/03/28 02:48:00;;;;;;;5.93;3.40;;;3.40;99.90;;;;;;5032436;28;20419;-76
2023/03/28 02:50:41;;;;;;;13.13;4.33;;;3.30;99.90;;;;;;5048525;28;20507;-76
2023/03/28 02:53:31;;;;;;;7.47;4.40;;;3.20;99.90;;;;;;5049676;28;20797;-76
2023/03/28 02:56:13;;;;;;;6.67;3.93;;;3.50;99.90;;;;;;5049853;28;20470;-76
2023/03/28 02:59:02;;;;;;;6.00;3.80;;;3.20;99.90;;;;;;5049511;28;20885;-75
2023/03/28 03:01:29;;;;;;;7.87;3.87;;;3.40;99.90;;;;;;5048122;28;20423;-76
2023/03/28 03:03:55;;;;;;;6.07;3.70;;;3.10;99.90;;;;;;5049264;28;20432;-76
2023/03/28 03:06:21;;;;;;;4.37;3.97;;;3.40;99.90;;;;;;5049501;28;20424;-75
2023/03/28 03:08:46;;;;;;;5.70;3.60;;;3.20;99.90;;;;;;5049194;28;20845;-75
2023/03/28 03:11:12;;;;;;;9.60;4.03;;;3.30;99.90;;;;;;5048002;28;20180;-76
2023/03/28 03:13:38;;;;;;;8.10;4.50;;;3.30;99.90;;;;;;5048810;28;20271;-76
2023/03/28 03:16:04;;;;;;;8.10;4.00;;;3.00;99.90;;;;;;5049378;28;20455;-76
2023/03/28 03:18:31;;;;;;;9.13;3.60;;;3.30;99.90;;;;;;5049282;28;20182;-76
2023/03/28 03:21:00;;;;;;;10.33;4.00;;;3.30;99.90;;;;;;5048015;28;20416;-76
2023/03/28 03:23:26;;;;;;;8.90;4.17;;;3.30;99.90;;;;;;5049112;28;20420;-75
2023/03/28 03:25:52;;;;;;;7.17;4.17;;;3.20;99.90;;;;;;5049284;28;20451;-76
2023/03/28 03:28:18;;;;;;;7.20;3.93;;;3.10;99.90;;;;;;5049115;28;20984;-76
2023/03/28 03:30:43;;;;;;;9.30;3.93;;;3.30;99.90;;;;;;5047808;28;20189;-75
2023/03/28 03:33:10;;;;;;;7.17;4.20;;;3.30;99.90;;;;;;5049044;28;20182;-76
2023/03/28 03:35:36;;;;;;;8.20;5.30;;;3.20;99.90;;;;;;5048996;28;20204;-76
2023/03/28 03:38:02;;;;;;;8.47;3.87;;;3.10;99.90;;;;;;5048949;28;20412;-76
2023/03/28 03:40:28;;;;;;;11.87;4.50;;;3.10;99.90;;;;;;5062670;28;20884;-75
2023/03/28 03:42:54;;;;;;;9.43;4.20;;;3.30;99.90;;;;;;5069210;28;20476;-76
2023/03/28 03:45:20;;;;;;;6.30;3.67;;;3.10;99.90;;;;;;5067842;28;20262;-76
2023/03/28 03:47:46;;;;;;;8.00;4.40;;;3.10;99.90;;;;;;5067461;28;20592;-76
2023/03/28 03:50:12;;;;;;;8.00;3.83;;;3.20;99.90;;;;;;5067794;28;20418;-76
2023/03/28 03:52:38;;;;;;;9.07;4.83;;;3.10;99.90;;;;;;5069002;28;20177;-76
2023/03/28 03:55:05;;;;;;;7.57;4.43;;;3.10;99.90;;;;;;5068850;28;20683;-76
2023/03/28 03:57:31;;;;;;;8.03;4.60;;;3.10;99.90;;;;;;5069424;28;20255;-76
2023/03/28 03:59:57;;;;;;;7.30;4.20;;;3.10;99.90;;;;;;5068827;28;20498;-76
2023/03/28 04:02:22;;;;;;;7.93;4.70;;;3.20;99.90;;;;;;5069064;28;20215;-76
2023/03/28 04:04:48;;;;;;;8.27;4.23;;;3.00;99.90;;;;;;5067393;28;20837;-75
2023/03/28 04:07:14;;;;;;;16.40;4.63;;;3.30;99.90;;;;;;5068909;28;20181;-76
2023/03/28 04:09:40;;;;;;;7.80;5.00;;;3.10;99.90;;;;;;5067870;28;20232;-76
2023/03/28 04:12:07;;;;;;;6.47;4.30;;;3.00;99.90;;;;;;5064873;28;20464;-76
2023/03/28 04:14:32;;;;;;;11.10;5.40;;;3.10;99.90;;;;;;5047354;28;20280;-76
2023/03/28 04:16:58;;;;;;;11.87;5.40;;;2.90;99.90;;;;;;5030873;28;20499;-76
2023/03/28 04:19:24;;;;;;;6.10;4.63;;;3.00;99.90;;;;;;5052225;28;20626;-76
2023/03/28 04:21:51;;;;;;;8.70;4.27;;;3.20;99.90;;;;;;5051516;28;20238;-76
2023/03/28 04:24:23;;;;;;;10.00;4.63;;;3.10;99.90;;;;;;5052425;28;20452;-75
2023/03/28 04:26:49;;;;;;;9.30;5.70;;;3.20;99.90;;;;;;5051165;28;20485;-76
2023/03/28 04:29:16;;;;;;;11.53;4.63;;;3.10;99.90;;;;;;5052522;28;20521;-76
2023/03/28 04:31:48;;;;;;;7.70;4.30;;;3.40;99.90;;;;;;5051171;28;20412;-75
2023/03/28 04:34:18;;;;;;;6.77;4.90;;;3.00;99.90;;;;;;5051197;28;20436;-75
2023/03/28 04:36:45;;;;;;;7.03;3.97;;;3.20;99.90;;;;;;5052323;28;20418;-76
2023/03/28 04:39:12;;;;;;;8.07;4.80;;;3.10;99.90;;;;;;5056655;28;20423;-76
2023/03/28 04:41:38;;;;;;;8.80;4.43;;;3.30;99.90;;;;;;5072600;28;20447;-77
2023/03/28 04:44:04;;;;;;;10.00;5.00;;;3.10;99.90;;;;;;5072156;28;20516;-77
2023/03/28 04:46:29;;;;;;;9.80;4.80;;;3.10;99.90;;;;;;5072141;28;20207;-76
2023/03/28 04:48:55;;;;;;;6.20;4.10;;;3.10;99.90;;;;;;5072330;28;20455;-77
2023/03/28 04:51:21;;;;;;;9.40;4.90;;;3.20;99.90;;;;;;5072364;28;20177;-76
2023/03/28 04:53:47;;;;;;;9.07;4.77;;;3.10;99.90;;;;;;5071703;28;20662;-77
2023/03/28 04:56:12;;;;;;;8.63;6.00;;;3.20;99.90;;;;;;5053907;28;20446;-77
2023/03/28 04:58:40;;;;;;;5.93;4.73;;;3.00;99.90;;;;;;5070300;28;20211;-77
2023/03/28 05:01:09;;;;;;;8.33;5.37;;;3.00;99.90;;;;;;5070119;28;20258;-76
2023/03/28 05:03:36;;;;;;;11.67;5.20;;;3.10;99.90;;;;;;5071023;28;20482;-76
2023/03/28 05:06:02;;;;;;;9.50;4.97;;;3.20;99.90;;;;;;5071459;28;20416;-76
2023/03/28 05:08:28;;;;;;;7.20;4.80;;;3.10;99.90;;;;;;5071581;28;20849;-77
2023/03/28 05:10:54;;;;;;;10.57;5.07;;;3.00;99.90;;;;;;5072365;28;20416;-77
2023/03/28 05:13:20;;;;;;;7.77;5.30;;;3.10;99.90;;;;;;5054604;28;20202;-74
2023/03/28 05:15:47;;;;;;;11.50;5.60;;;3.00;99.90;;;;;;5049584;28;20523;-74
2023/03/28 05:18:13;;;;;;;10.00;6.10;;;3.00;99.90;;;;;;5051525;28;20912;-74
2023/03/28 05:20:39;;;;;;;8.03;5.33;;;2.90;99.90;;;;;;5048693;28;20443;-77
2023/03/28 05:23:06;;;;;;;8.17;5.60;;;3.20;99.90;;;;;;5050853;28;20428;-76
2023/03/28 05:25:32;;;;;;;10.97;5.30;;;2.90;99.90;;;;;;5051235;28;20455;-76
2023/03/28 05:27:58;;;;;;;9.23;5.50;;;3.10;99.90;;;;;;5032595;28;20433;-77
2023/03/28 05:30:24;;;;;;;13.60;9.00;;;2.90;99.90;;;;;;5046690;28;20410;-77
2023/03/28 05:32:50;;;;;;;7.90;5.80;;;3.00;99.90;;;;;;5031808;28;20416;-77
2023/03/28 05:35:15;;;;;;;9.07;5.87;;;3.10;99.90;;;;;;5031352;28;20214;-76
2023/03/28 05:37:42;;;;;;;10.93;6.00;;;3.00;99.90;;;;;;5032097;28;20257;-76
2023/03/28 05:40:09;;;;;;;9.63;6.50;;;3.00;99.90;;;;;;5041398;28;20437;-77
2023/03/28 05:42:36;;;;;;;8.70;5.97;;;2.90;99.90;;;;;;5064858;28;20967;-77
2023/03/28 05:45:06;;;;;;;12.20;6.30;;;2.90;99.90;;;;;;5050922;28;20429;-77
2023/03/28 05:47:32;;;;;;;13.87;6.50;;;2.80;99.90;;;;;;5048758;28;20838;-77
2023/03/28 05:49:58;;;;;;;10.60;6.77;;;2.80;99.90;;;;;;5047784;28;20499;-77
2023/03/28 05:52:24;;;;;;;9.00;6.40;;;3.10;99.90;;;;;;5049935;28;20444;-77
2023/03/28 05:54:50;;;;;;;13.00;6.27;;;2.90;99.90;;;;;;5051500;28;20229;-77
2023/03/28 05:57:16;;;;;;;12.33;6.07;;;3.10;99.90;;;;;;5050864;28;20170;-79
2023/03/28 05:59:42;;;;;;;8.30;6.47;;;3.00;99.90;;;;;;5050982;28;20448;-78
2023/03/28 06:02:12;;;;;;;9.40;7.03;;;3.10;99.90;;;;;;5050149;28;20917;-78
2023/03/28 06:04:38;;;;;;;10.27;6.53;;;3.30;99.90;;;;;;5049702;28;20471;-78
2023/03/28 06:07:05;;;;;;;15.43;6.90;;;3.20;99.90;;;;;;5051444;28;20898;-77
2023/03/28 06:09:31;;;;;;;10.57;6.53;;;3.40;99.90;;;;;;5050499;28;20464;-77
2023/03/28 06:12:00;;;;;;;12.10;6.60;;;3.50;99.90;;;;;;5047451;28;20741;-78
2023/03/28 06:14:27;;;;;;;7.43;6.00;;;3.60;99.90;;;;;;5048623;28;20436;-77
2023/03/28 06:16:53;;;;;;;12.47;6.73;;;3.60;99.90;;;;;;5021313;28;20751;-78
2023/03/28 06:19:19;;;;;;;13.23;6.80;;;3.80;99.90;;;;;;5031651;28;20424;-76
2023/03/28 06:21:45;;;;;;;10.10;5.73;;;3.80;99.90;;;;;;5031332;28;20178;-78
2023/03/28 06:24:10;;;;;;;11.30;6.33;;;3.90;99.90;;;;;;5040427;28;20455;-78
2023/03/28 06:26:36;;;;;;;9.13;6.40;;;4.20;99.90;;;;;;5047861;28;20197;-77
2023/03/28 06:29:02;;;;;;;8.17;6.47;;;4.20;99.90;;;;;;5037683;28;20202;-78
2023/03/28 06:31:28;;;;;;;12.53;6.40;;;4.70;99.90;;;;;;5036645;28;20187;-77
2023/03/28 06:33:54;;;;;;;11.10;6.63;;;4.50;99.90;;;;;;5037615;28;20451;-77
2023/03/28 06:36:19;;;;;;;7.77;5.70;;;4.70;99.90;;;;;;5039243;28;20181;-76
2023/03/28 06:38:46;;;;;;;12.43;5.80;;;4.90;99.90;;;;;;5037048;28;20278;-77
2023/03/28 06:41:12;;;;;;;12.97;6.23;;;4.80;99.90;;;;;;5043395;28;20190;-77
2023/03/28 06:43:37;;;;;;;8.77;5.67;;;5.20;99.90;;;;;;5048267;28;20849;-77
2023/03/28 06:46:03;;;;;;;9.10;6.13;;;5.10;99.90;;;;;;5032282;28;20216;-76
2023/03/28 06:48:30;;;;;;;12.50;5.90;;;4.90;99.90;;;;;;5049462;28;20243;-77
2023/03/28 06:50:59;;;;;;;8.60;6.70;;;5.20;99.90;;;;;;5065579;28;20913;-77
2023/03/28 06:53:26;;;;;;;10.60;5.97;;;5.20;99.90;;;;;;5048017;28;20917;-78
2023/03/28 06:55:52;;;;;;;10.20;6.20;;;5.30;99.90;;;;;;5050222;28;20978;-77
2023/03/28 06:58:19;;;;;;;10.90;5.60;;;5.30;99.90;;;;;;5048005;28;20420;-77
2023/03/28 07:00:45;;;;;;;12.67;6.20;;;5.30;99.90;;;;;;5037513;28;20425;-77
2023/03/28 07:03:11;;;;;;;7.20;5.50;;;5.40;99.90;;;;;;5029817;28;20413;-77
2023/03/28 07:05:38;;;;;;;9.47;5.80;;;5.40;99.90;;;;;;5030666;28;20193;-76
2023/03/28 07:08:06;;;;;;;8.80;5.63;;;5.50;99.90;;;;;;5029942;28;20417;-77
2023/03/28 07:10:32;;;;;;;6.80;5.83;;;5.50;99.90;;;;;;5028494;28;20952;-77
2023/03/28 07:12:57;;;;;;;10.63;5.70;;;5.70;99.90;;;;;;5040583;28;20436;-75
2023/03/28 07:15:23;;;;;;;9.83;5.97;;;5.50;99.90;;;;;;5048230;28;20201;-77
2023/03/28 07:17:49;;;;;;;15.07;6.47;;;5.50;99.90;;;;;;5046566;28;20186;-77
2023/03/28 07:20:15;;;;;;;8.87;5.53;;;5.80;99.90;;;;;;5049715;28;20178;-77
2023/03/28 07:22:40;;;;;;;7.50;5.40;;;5.90;99.90;;;;;;5050790;28;20170;-76
2023/03/28 07:25:07;;;;;;;11.97;6.17;;;5.80;99.90;;;;;;5049113;28;20436;-77
2023/03/28 07:27:33;;;;;;;9.47;5.83;;;6.10;99.90;;;;;;5028451;28;20178;-78
2023/03/28 07:29:58;;;;;;;10.07;5.97;;;6.00;99.90;;;;;;5029411;28;21139;-78
2023/03/28 07:32:24;;;;;;;14.37;5.73;;;5.90;99.90;;;;;;5029395;28;20417;-76
2023/03/28 07:34:50;;;;;;;9.20;6.30;;;6.20;99.90;;;;;;5029125;28;20196;-76
2023/03/28 07:37:16;;;;;;;12.10;5.80;;;6.20;99.90;;;;;;5027911;28;20417;-77
2023/03/28 07:39:42;;;;;;;6.97;5.70;;;6.30;99.90;;;;;;5045633;28;20595;-76
2023/03/28 07:42:12;;;;;;;12.90;6.10;;;6.20;99.90;;;;;;5069216;28;20422;-77
2023/03/28 07:44:38;;;;;;;8.70;6.07;;;6.20;99.90;;;;;;5069041;28;20423;-77
2023/03/28 07:47:04;;;;;;;9.93;6.00;;;6.30;99.90;;;;;;5069036;28;20415;-77
2023/03/28 07:49:31;;;;;;;8.00;5.93;;;6.50;99.90;;;;;;5067662;28;20487;-78
2023/03/28 07:51:57;;;;;;;12.80;6.23;;;6.50;99.90;;;;;;5036167;28;20412;-77
2023/03/28 07:54:23;;;;;;;9.50;5.03;;;6.70;99.90;;;;;;5052232;28;20428;-77
2023/03/28 07:56:49;;;;;;;12.57;5.20;;;6.80;99.90;;;;;;5053080;28;20412;-76
2023/03/28 07:59:15;;;;;;;8.07;4.37;;;6.70;99.90;;;;;;5051874;28;20413;-76
2023/03/28 08:01:43;;;;;;;9.83;5.03;;;6.60;99.90;;;;;;5052868;28;20424;-77
2023/03/28 08:04:10;;;;;;;12.70;5.33;;;6.90;99.90;;;;;;5052800;28;20439;-78
2023/03/28 08:06:39;;;;;;;13.50;6.70;;;6.90;99.90;;;;;;5052409;28;20428;-78
2023/03/28 08:09:06;;;;;;;8.33;4.50;;;7.00;99.90;;;;;;5053170;28;20495;-78
2023/03/28 08:11:36;;;;;;;7.00;4.67;;;7.00;99.90;;;;;;5053426;28;20804;-78
2023/03/28 08:14:04;;;;;;;11.80;4.33;;;7.10;99.90;;;;;;5053321;28;20475;-78
2023/03/28 08:16:30;;;;;;;6.67;4.23;;;7.00;99.90;;;;;;5052968;28;20454;-77
2023/03/28 08:18:56;;;;;;;11.33;5.23;;;7.20;99.90;;;;;;5053799;28;20412;-77
2023/03/28 08:21:22;;;;;;;8.93;6.17;;;7.40;99.90;;;;;;5053082;28;20412;-77
2023/03/28 08:23:47;;;;;;;10.47;5.87;;;7.50;99.90;;;;;;5052949;28;20299;-78
2023/03/28 08:26:13;;;;;;;11.50;6.43;;;7.50;99.90;;;;;;5054457;28;20479;-78
2023/03/28 08:28:40;;;;;;;10.40;5.50;;;7.50;99.90;;;;;;5053914;28;20603;-78
2023/03/28 08:31:12;;;;;;;8.80;5.13;;;7.70;99.90;;;;;;5054741;28;20558;-77
2023/03/28 08:33:39;;;;;;;6.40;3.50;;;7.60;99.90;;;;;;5054304;28;20992;-77
2023/03/28 08:36:05;;;;;;;5.40;3.40;;;7.50;99.90;;;;;;5052941;28;20896;-78
2023/03/28 08:38:31;;;;;;;8.10;4.53;;;7.60;99.90;;;;;;5055223;28;20408;-77
2023/03/28 08:41:16;;;;;;;9.93;4.83;;;7.70;99.90;;;;;;5053990;28;20425;-78
2023/03/28 08:44:19;;;;;;;9.23;4.70;;;7.70;99.90;;;;;;5053028;28;20999;-78
2023/03/28 08:46:48;;;;;;;6.37;3.50;;;7.70;99.90;;;;;;5053433;28;20477;-79
2023/03/28 08:49:16;;;;;;;9.73;4.20;;;7.70;99.90;;;;;;5054582;28;20495;-77
2023/03/28 08:51:46;;;;;;;6.07;3.33;;;7.50;99.90;;;;;;5054737;28;20416;-78
2023/03/28 08:54:27;;;;;;;8.60;3.37;;;7.60;99.90;;;;;;5053152;28;20936;-78
2023/03/28 08:56:56;;;;;;;6.40;2.13;;;7.60;99.90;;;;;;5053487;28;20420;-77
2023/03/28 08:59:39;;;;;;;7.60;2.70;;;7.70;99.90;;;;;;5053572;28;20918;-77
2023/03/28 09:02:21;;;;;;;5.03;2.33;;;7.50;99.90;;;;;;5053382;28;20424;-76
2023/03/28 09:04:48;;;;;;;4.90;1.60;;;7.70;99.90;;;;;;5052918;28;20432;-76
2023/03/28 09:07:25;;;;;;;7.93;2.03;;;7.90;99.90;;;;;;5053221;28;20420;-77
2023/03/28 09:10:10;;;;;;;3.63;1.60;;;7.90;99.90;;;;;;5052753;28;20456;-79
2023/03/28 09:12:48;;;;;;;4.50;2.27;;;8.00;99.90;;;;;;5054009;28;20423;-78
2023/03/28 09:15:13;;;;;;;4.10;1.80;;;8.00;99.90;;;;;;5052943;28;20420;-76
2023/03/28 09:18:01;;;;;;;6.40;1.70;;;8.00;99.90;;;;;;5053300;28;20470;-78
2023/03/28 09:20:56;;;;;;;1.97;1.10;;;7.90;99.90;;;;;;5053850;28;20174;-78
2023/03/28 09:23:49;;;;;;;6.73;1.27;;;8.00;99.90;;;;;;5051911;28;20891;-78
2023/03/28 09:26:19;;;;;;;5.23;1.57;;;8.00;99.90;;;;;;5052530;28;20412;-77
2023/03/28 09:28:53;;;;;;;4.10;1.60;;;7.80;99.90;;;;;;5053543;28;20805;-78
2023/03/28 09:31:26;;;;;;;5.13;1.70;;;7.80;99.90;;;;;;5052266;28;20422;-79
2023/03/28 09:33:54;;;;;;;5.17;1.77;;;7.80;99.90;;;;;;5052924;28;20436;-79
2023/03/28 09:36:27;;;;;;;4.63;1.70;;;7.80;99.90;;;;;;5053857;28;20440;-78
2023/03/28 09:38:57;;;;;;;6.93;2.70;;;7.70;99.90;;;;;;5053360;28;20483;-77
2023/03/28 09:41:59;;;;;;;5.20;2.10;;;7.70;99.90;;;;;;5035728;28;20424;-77
2023/03/28 09:44:30;;;;;;;8.23;2.13;;;7.80;99.90;;;;;;5052170;28;20509;-77
2023/03/28 09:46:58;;;;;;;5.13;3.03;;;7.90;99.90;;;;;;5053048;28;20785;-77
2023/03/28 09:49:25;;;;;;;3.03;1.80;;;7.90;99.90;;;;;;5052969;28;20460;-78
2023/03/28 09:51:54;;;;;;;5.40;1.93;;;7.80;99.90;;;;;;5053414;28;20412;-76
2023/03/28 09:54:31;;;;;;;3.30;1.80;;;7.80;99.90;;;;;;5052502;28;20449;-76
2023/03/28 09:57:00;;;;;;;6.10;2.23;;;7.80;99.90;;;;;;5053477;28;20408;-79
2023/03/28 09:59:27;;;;;;;5.03;2.37;;;7.80;99.90;;;;;;5052897;28;20420;-78
2023/03/28 10:01:54;;;;;;;4.27;2.23;;;7.70;99.90;;;;;;5050416;28;20423;-77
2023/03/28 10:04:32;;;;;;;3.50;1.80;;;7.90;99.90;;;;;;5051749;28;20515;-77
2023/03/28 10:07:09;;;;;;;3.00;1.20;;;7.80;99.90;;;;;;5053893;28;20807;-78
2023/03/28 10:09:57;;;;;;;7.03;3.00;;;7.90;99.90;;;;;;5052666;28;20825;-79
2023/03/28 10:12:37;;;;;;;4.73;1.80;;;8.00;99.90;;;;;;5053481;28;20448;-79
2023/03/28 10:15:06;;;;;;;2.93;1.70;;;8.00;99.90;;;;;;5034912;28;20493;-79
2023/03/28 10:17:35;;;;;;;2.83;1.73;;;8.30;99.90;;;;;;5053237;28;20512;-78
2023/03/28 10:20:13;;;;;;;4.10;1.53;;;8.30;99.90;;;;;;5054467;28;20413;-78
2023/03/28 10:22:40;;;;;;;5.23;1.50;;;8.40;99.90;;;;;;5052294;28;21120;-78
2023/03/28 10:25:14;;;;;;;4.07;1.53;;;8.30;99.90;;;;;;5054028;28;20874;-78
2023/03/28 10:27:40;;;;;;;4.60;1.80;;;8.30;99.30;;;;;;5056218;28;20423;-78
2023/03/28 10:30:30;;;;;;;5.87;2.00;;;8.50;99.80;;;;;;5053866;28;20459;-78
2023/03/28 10:33:15;;;;;;;5.30;1.67;;;8.30;99.90;;;;;;5051691;28;20600;-78
2023/03/28 10:35:56;;;;;;;4.70;1.80;;;8.20;99.90;;;;;;5049397;28;20469;-77
2023/03/28 10:38:23;;;;;;;5.67;1.50;;;8.30;99.90;;;;;;5050802;28;20447;-78
2023/03/28 10:41:22;;;;;;;6.93;1.50;;;8.30;99.90;;;;;;5050865;28;20737;-77
2023/03/28 10:43:48;;;;;;;3.90;1.43;;;8.30;99.90;;;;;;5049908;28;20790;-77
2023/03/28 10:46:20;;;;;;;3.97;1.80;;;8.20;99.90;;;;;;5049545;28;20416;-78
2023/03/28 10:48:56;;;;;;;4.10;1.50;;;8.60;99.90;;;;;;5049412;28;20467;-77
2023/03/28 10:51:24;;;;;;;6.40;1.77;;;8.60;99.90;;;;;;5031177;28;20793;-78
2023/03/28 10:54:30;;;;;;;4.20;1.60;;;8.70;98.20;;;;;;5047824;28;20968;-77
2023/03/28 10:57:33;;;;;;;5.70;2.23;;;8.90;97.40;;;;;;5050620;28;20423;-78
2023/03/28 11:00:18;;;;;;;4.57;2.20;;;9.10;97.40;;;;;;5049519;28;20408;-77
2023/03/28 11:02:52;;;;;;;6.20;2.10;;;9.10;97.10;;;;;;5049084;28;20429;-77
2023/03/28 11:05:45;;;;;;;2.33;1.50;;;9.50;96.50;;;;;;5049315;28;20790;-77
2023/03/28 11:08:29;;;;;;;5.37;2.10;;;9.40;96.20;;;;;;5047769;28;20412;-77
2023/03/28 11:11:26;;;;;;;3.50;2.33;;;9.50;95.60;;;;;;5031066;28;20507;-77
2023/03/28 11:14:37;;;;;;;2.70;1.77;;;9.60;96.20;;;;;;5047420;28;20476;-77
2023/03/28 11:17:11;;;;;;;4.90;2.40;;;9.90;95.50;;;;;;5049122;28;20405;-77
2023/03/28 11:20:16;;;;;;;5.33;2.47;;;9.50;95.20;;;;;;5049017;28;20577;-77
2023/03/28 11:22:41;;;;;;;6.23;2.27;;;9.50;96.20;;;;;;5047673;28;20408;-77
2023/03/28 11:25:40;;;;;;;5.57;2.70;;;9.50;95.80;;;;;;5048649;28;20429;-77
2023/03/28 11:28:39;;;;;;;5.23;2.67;;;9.50;94.80;;;;;;5046526;28;20190;-77
2023/03/28 11:31:13;;;;;;;4.87;2.40;;;9.60;95.60;;;;;;5047399;28;20436;-78
2023/03/28 11:34:12;;;;;;;4.60;2.00;;;9.50;95.40;;;;;;5048411;28;20428;-77
2023/03/28 11:36:57;;;;;;;2.77;2.30;;;9.60;95.30;;;;;;5046508;28;20412;-77
2023/03/28 11:39:37;;;;;;;3.50;2.37;;;9.90;94.80;;;;;;5048398;28;20411;-77
2023/03/28 11:42:14;;;;;;;3.30;2.10;;;9.70;95.50;;;;;;5047223;28;20412;-77
2023/03/28 11:44:53;;;;;;;4.00;2.57;;;9.70;95.20;;;;;;5046958;28;20483;-76
2023/03/28 11:47:28;;;;;;;3.73;2.40;;;10.00;95.00;;;;;;5047158;28;20431;-77
2023/03/28 11:50:13;;;;;;;7.70;2.80;;;9.90;95.30;;;;;;5048425;28;20455;-77
2023/03/28 11:52:55;;;;;;;2.90;1.90;;;9.90;94.50;;;;;;5047447;28;20412;-77
2023/03/28 11:55:30;;;;;;;3.90;2.40;;;9.90;94.80;;;;;;5048183;28;20440;-77
2023/03/28 11:58:25;;;;;;;3.40;2.10;;;9.90;95.30;;;;;;5048259;28;20415;-77
2023/03/28 12:01:16;;;;;;;3.93;1.97;;;10.00;94.90;;;;;;5046184;28;20428;-77
2023/03/28 12:04:14;;;;;;;4.50;2.53;;;10.10;93.50;;;;;;5046851;28;20483;-77
2023/03/28 12:06:52;;;;;;;3.57;2.00;;;10.20;93.60;;;;;;5047807;28;20416;-77
2023/03/28 12:09:18;;;;;;;2.90;2.07;;;10.10;92.90;;;;;;5046889;28;20467;-77
2023/03/28 12:12:00;;;;;;;2.27;1.60;;;10.20;93.10;;;;;;5048091;28;20428;-77
2023/03/28 12:14:41;;;;;;;3.07;1.53;;;10.20;93.20;;;;;;5046550;28;20751;-77
2023/03/28 12:17:37;;;;;;;1.97;1.67;;;10.40;92.50;;;;;;5048005;28;20851;-77
2023/03/28 12:20:11;;;;;;;3.40;1.73;;;10.20;92.90;;;;;;5045615;28;20864;-77
2023/03/28 12:22:45;;;;;;;5.20;2.13;;;10.20;92.60;;;;;;5046913;28;20420;-76
2023/03/28 12:25:23;;;;;;;4.13;2.10;;;10.20;92.80;;;;;;5046739;28;20428;-77
2023/03/28 12:28:11;;;;;;;3.87;2.03;;;10.20;92.40;;;;;;5047951;28;20420;-77
2023/03/28 12:30:55;;;;;;;3.93;2.00;;;10.20;92.20;;;;;;5047797;28;20420;-77
2023/03/28 12:33:32;;;;;;;4.53;2.50;;;10.20;91.10;;;;;;5047737;28;20423;-77
2023/03/28 12:36:24;;;;;;;5.03;2.20;;;10.00;90.80;;;;;;5048093;28;20408;-76
2023/03/28 12:38:59;;;;;;;3.07;2.50;;;10.10;90.40;;;;;;5048458;28;20412;-77
2023/03/28 12:41:38;;;;;;;3.70;1.97;;;10.10;90.60;;;;;;5051819;28;20430;-76
2023/03/28 12:44:25;;;;;;;4.40;2.40;;;10.00;91.00;;;;;;5051306;28;20424;-77
2023/03/28 12:47:05;;;;;;;3.27;2.00;;;10.10;91.00;;;;;;5050294;28;20812;-77
2023/03/28 12:49:49;;;;;;;6.60;2.83;;;10.30;90.40;;;;;;5051302;28;20456;-77
2023/03/28 12:52:30;;;;;;;5.27;3.70;;;10.00;90.40;;;;;;5050555;28;20404;-77
2023/03/28 12:55:00;;;;;;;3.87;2.10;;;10.10;89.60;;;;;;5051205;28;20486;-76
2023/03/28 12:57:44;;;;;;;5.33;2.10;;;10.00;89.00;;;;;;5050008;28;20990;-76
2023/03/28 13:00:32;;;;;;;5.00;2.20;;;9.90;90.70;;;;;;5051178;28;20558;-77
2023/03/28 13:03:04;;;;;;;5.83;2.90;;;10.00;89.50;;;;;;5049715;28;20978;-76
2023/03/28 13:06:03;;;;;;;3.57;2.50;;;9.90;89.50;;;;;;5049670;28;20436;-77
2023/03/28 13:09:13;;;;;;;5.30;1.63;;;9.90;90.60;;;;;;5051070;28;20452;-76
2023/03/28 13:12:02;;;;;;;2.87;2.00;;;9.90;90.50;;;;;;5049410;28;20515;-77
2023/03/28 13:14:32;;;;;;;1.97;1.50;;;9.80;88.60;;;;;;5050737;28;20431;-77
2023/03/28 13:17:15;;;;;;;1.53;1.40;;;9.70;88.90;;;;;;5050845;28;20411;-77
2023/03/28 13:19:41;;;;;;;2.70;1.70;;;9.80;90.70;;;;;;5050934;28;20893;-77
2023/03/28 13:22:24;;;;;;;2.73;1.33;;;9.90;90.30;;;;;;5050971;28;20423;-76
2023/03/28 13:24:50;;;;;;;3.00;1.30;;;9.90;89.60;;;;;;5050609;28;20447;-76